Aurora, OR (97002)

1:39 PM PDT on August 29, 2015 (GMT -0700)
Mineral Springs View | | Change Station
CLOSE
Current Station
Personal Weather Station
Location: Hubbard, OR
Elevation: 177 ft
Nearby Weather Stations

Elev 177 ft 45.19 °N, 122.81 °W | Updated 11 minutes ago

Mostly Cloudy
Mostly Cloudy
73.6 °F
Feels Like 77 °F
N
7.8
Wind Variable Wind from WNW

Today
High -- | Low -- °F
--% Chance of Precip.
Yesterday
High -- | Low -- °F
Precip. -- in
6:29 AM 7:54 PM
Full, 100% visible
Pressure 29.81 in
Visibility 10.0 miles
Clouds Few 4500 ft
Few 7500 ft
Mostly Cloudy 9000 ft
Heat Index 77 °F
Dew Point 54 °F
Humidity 51%
Rainfall 0.27 in
Snow Depth Not available.
UV 4 out of 12
Pollen .20 out of 12
Air Quality Not available.
Flu Activity Not available.
METAR KUAO 291953Z AUTO 23016G28KT 10SM FEW045 FEW075 BKN090 22/12 A2982 RMK AO2 PK WND 20034/1906 RAB07E16 SLP095 P0000 T02220117 $
Pressure 29.81 in
Visibility 10.0 miles
Clouds Few 4500 ft
Few 7500 ft
Mostly Cloudy 9000 ft
Heat Index 77 °F
Dew Point 54 °F
Humidity 51%
Rainfall 0.27 in
Snow Depth Not available.
UV 4 out of 12
Pollen .20 out of 12
Air Quality Not available.
Flu Activity Not available.
METAR KUAO 291953Z AUTO 23016G28KT 10SM FEW045 FEW075 BKN090 22/12 A2982 RMK AO2 PK WND 20034/1906 RAB07E16 SLP095 P0000 T02220117 $

10-Day Weather Forecast

×

Almanac

Astronomy

Aug. 29, 2015 Rise Set
Actual Time
Civil Twilight
Nautical Twilight
Astronomical Twilight
Moon
Length of Visible Light
Length of Day
Tomorrow will be .
, % of the Moon is Illuminated

Today's Extremes

State Highs State Lows

Community

WunderPhotos

Upload Photos

1,850,793 photos uploaded!

WunderBlogs® & News

Nearby

Air Quality

  Air Quality AQ Index Pollutant
Not available.

Snow Depth

Station Depth Elevation

Earthquake Activity

City Distance Mag. Time & Date
Minimum magnitude displayed is 2.5.

Coastal Water Temperatures

Place Temperature

Stations

Nearby Weather Stations

Station Location Temp. Windchill Dew Point Humidity Wind Precip. Elev Updated Type